Time;durP1;ratioP1;P1;durP2;ratioP2;P2;SDS_P1;SDS_P2;PMS_P1;PMS_P2;Temp;Humidity;BMP_temperature;BMP_pressure;BME280_temperature;BME280_humidity;BME280_pressure;Samples;Min_cycle;Max_cycle;Signal;HPM_P1;HPM_P2
2023/05/17 00:00:08;;;;;;;6.10;2.10;;;10.10;90.60;;;;;;6317725;28;20047;-79
2023/05/17 00:03:10;;;;;;;3.28;1.75;;;10.00;90.70;;;;;;6319697;28;20047;-80
2023/05/17 00:06:11;;;;;;;6.47;2.50;;;10.00;90.90;;;;;;6303790;28;20429;-80
2023/05/17 00:09:13;;;;;;;5.35;1.88;;;10.00;91.00;;;;;;6317892;28;20834;-80
2023/05/17 00:12:15;;;;;;;4.43;1.70;;;9.90;91.20;;;;;;6323290;28;20120;-80
2023/05/17 00:15:18;;;;;;;3.25;1.67;;;9.90;91.40;;;;;;6305892;28;20477;-82
2023/05/17 00:18:20;;;;;;;5.25;1.60;;;9.80;91.50;;;;;;6303988;28;20052;-81
2023/05/17 00:21:21;;;;;;;9.00;2.35;;;9.80;91.70;;;;;;6308589;28;20047;-81
2023/05/17 00:24:23;;;;;;;4.57;3.50;;;9.70;91.80;;;;;;6307174;28;20398;-82
2023/05/17 00:27:25;;;;;;;5.72;2.03;;;9.70;92.00;;;;;;6311671;28;20068;-81
2023/05/17 00:30:28;;;;;;;2.10;1.67;;;9.60;92.10;;;;;;6311392;28;20644;-81
2023/05/17 00:33:30;;;;;;;6.28;2.25;;;9.60;92.30;;;;;;6307420;28;20430;-81
2023/05/17 00:36:32;;;;;;;5.95;1.90;;;9.60;92.50;;;;;;6308711;28;20060;-80
2023/05/17 00:39:37;;;;;;;2.33;1.60;;;9.50;92.60;;;;;;6307754;28;20040;-81
2023/05/17 00:42:38;;;;;;;5.97;2.17;;;9.50;92.80;;;;;;6306377;28;20059;-81
2023/05/17 00:45:42;;;;;;;2.25;2.00;;;9.50;92.90;;;;;;6306628;28;20054;-81
2023/05/17 00:48:44;;;;;;;7.00;2.20;;;9.40;93.10;;;;;;6306695;28;20113;-80
2023/05/17 00:51:46;;;;;;;5.78;2.47;;;9.30;93.20;;;;;;6301272;28;20130;-81
2023/05/17 00:54:48;;;;;;;6.70;1.75;;;9.30;93.40;;;;;;6301206;28;20064;-81
2023/05/17 00:57:50;;;;;;;4.45;2.28;;;9.30;93.60;;;;;;6310186;28;20403;-81
2023/05/17 01:00:54;;;;;;;6.72;2.20;;;9.20;93.80;;;;;;6306213;28;20059;-80
2023/05/17 01:03:56;;;;;;;4.68;2.20;;;9.20;93.90;;;;;;6312592;28;20143;-82
2023/05/17 01:07:01;;;;;;;7.82;2.33;;;9.10;94.10;;;;;;6312915;28;20131;-80
2023/05/17 01:10:03;;;;;;;9.02;2.42;;;9.10;94.30;;;;;;6305772;27;20576;-80
2023/05/17 01:13:10;;;;;;;2.55;1.88;;;9.00;94.50;;;;;;6352540;28;20047;-81
2023/05/17 01:16:27;;;;;;;4.90;2.10;;;8.90;94.80;;;;;;6351516;28;20044;-81
2023/05/17 01:19:50;;;;;;;5.53;2.15;;;8.80;95.10;;;;;;6353776;28;20043;-82
2023/05/17 01:22:59;;;;;;;7.03;2.58;;;8.70;95.40;;;;;;6353587;27;20054;-80
2023/05/17 01:26:10;;;;;;;9.32;2.80;;;8.60;95.60;;;;;;6353871;28;20054;-81
2023/05/17 01:29:15;;;;;;;5.60;1.95;;;8.50;96.00;;;;;;6353774;28;20043;-81
2023/05/17 01:32:19;;;;;;;4.05;1.83;;;8.30;96.20;;;;;;6354278;28;20425;-80
2023/05/17 01:35:21;;;;;;;9.50;2.42;;;8.20;96.60;;;;;;6364133;28;20047;-81
2023/05/17 01:38:22;;;;;;;6.25;3.22;;;8.10;96.90;;;;;;6356307;28;20054;-81
2023/05/17 01:41:29;;;;;;;2.75;2.03;;;8.00;97.20;;;;;;6355894;28;20048;-80
2023/05/17 01:44:38;;;;;;;5.78;2.97;;;7.80;97.50;;;;;;6355444;28;20055;-81
2023/05/17 01:47:45;;;;;;;4.43;2.10;;;7.80;97.90;;;;;;6354893;28;20126;-79
2023/05/17 01:50:49;;;;;;;2.97;2.10;;;7.70;98.20;;;;;;6353616;28;20421;-79
2023/05/17 01:53:57;;;;;;;3.72;3.10;;;7.60;98.40;;;;;;6354757;28;20524;-81
2023/05/17 01:57:00;;;;;;;7.45;4.28;;;7.50;98.60;;;;;;6353734;28;20059;-81
2023/05/17 02:00:08;;;;;;;6.10;2.47;;;7.40;98.90;;;;;;6352843;28;20508;-81
2023/05/17 02:03:13;;;;;;;3.78;2.13;;;7.30;99.20;;;;;;6353861;28;20047;-81
2023/05/17 02:06:14;;;;;;;7.47;2.80;;;7.30;99.40;;;;;;6352833;27;20093;-79
2023/05/17 02:09:16;;;;;;;2.88;2.03;;;7.20;99.70;;;;;;6354001;28;20054;-81
2023/05/17 02:12:18;;;;;;;3.90;2.15;;;7.10;99.90;;;;;;6353385;28;20405;-81
2023/05/17 02:15:21;;;;;;;2.42;2.22;;;7.00;99.90;;;;;;6353714;28;20113;-81
2023/05/17 02:18:22;;;;;;;5.70;2.35;;;6.90;99.90;;;;;;6353351;28;20746;-81
2023/05/17 02:21:24;;;;;;;12.13;4.88;;;6.90;99.90;;;;;;6353784;28;20053;-80
2023/05/17 02:24:26;;;;;;;6.50;2.80;;;6.90;99.90;;;;;;6353160;28;20398;-81
2023/05/17 02:27:28;;;;;;;6.10;2.95;;;6.90;99.90;;;;;;6351714;28;20096;-81
2023/05/17 02:30:31;;;;;;;2.33;2.13;;;6.90;99.90;;;;;;6353711;27;20160;-80
2023/05/17 02:33:32;;;;;;;6.20;2.88;;;6.90;99.90;;;;;;6352369;28;20414;-81
2023/05/17 02:36:34;;;;;;;4.50;2.80;;;6.90;99.90;;;;;;6351164;28;20070;-81
2023/05/17 02:39:36;;;;;;;5.35;2.42;;;6.80;99.90;;;;;;6353965;28;20123;-81
2023/05/17 02:42:38;;;;;;;5.32;2.80;;;6.80;99.90;;;;;;6362147;28;20044;-80
2023/05/17 02:45:43;;;;;;;2.80;2.28;;;6.70;99.90;;;;;;6355815;28;20123;-81
2023/05/17 02:48:44;;;;;;;9.55;2.63;;;6.60;99.90;;;;;;6352759;28;20134;-79
2023/05/17 02:51:46;;;;;;;4.07;3.00;;;6.60;99.90;;;;;;6352610;28;20040;-80
2023/05/17 02:54:48;;;;;;;12.15;3.60;;;6.70;99.90;;;;;;6352432;28;20055;-80
2023/05/17 02:57:50;;;;;;;5.43;2.88;;;6.70;99.90;;;;;;6352795;28;20055;-81
2023/05/17 03:00:53;;;;;;;3.53;2.70;;;6.70;99.90;;;;;;6327135;28;20043;-80
2023/05/17 03:03:55;;;;;;;7.97;3.30;;;6.70;99.90;;;;;;6332052;27;20054;-80
2023/05/17 03:06:57;;;;;;;10.88;3.75;;;6.80;99.90;;;;;;6326341;28;20044;-79
2023/05/17 03:09:58;;;;;;;3.22;2.60;;;6.70;99.90;;;;;;6326773;28;20159;-81
2023/05/17 03:13:00;;;;;;;6.60;2.78;;;6.70;99.90;;;;;;6351705;28;20131;-81
2023/05/17 03:16:04;;;;;;;4.18;2.75;;;6.70;99.90;;;;;;6351578;28;20047;-79
2023/05/17 03:19:06;;;;;;;3.58;3.20;;;6.80;99.90;;;;;;6350818;28;20480;-80
2023/05/17 03:22:08;;;;;;;5.57;3.75;;;6.80;99.90;;;;;;6350876;28;20088;-80
2023/05/17 03:25:09;;;;;;;6.13;3.00;;;6.80;99.90;;;;;;6351175;28;20512;-80
2023/05/17 03:28:11;;;;;;;9.52;3.63;;;6.80;99.90;;;;;;6350317;28;20047;-81
2023/05/17 03:31:14;;;;;;;5.47;2.55;;;6.80;99.90;;;;;;6352608;28;20048;-80
2023/05/17 03:34:16;;;;;;;5.57;4.50;;;6.80;99.90;;;;;;6356609;28;20039;-80
2023/05/17 03:37:18;;;;;;;3.90;2.55;;;6.80;99.90;;;;;;6368195;28;20050;-80
2023/05/17 03:40:19;;;;;;;5.07;3.10;;;6.80;99.90;;;;;;6370600;28;20042;-81
2023/05/17 03:43:21;;;;;;;3.97;3.13;;;6.90;99.90;;;;;;6365155;28;20048;-81
2023/05/17 03:46:24;;;;;;;4.20;2.88;;;6.90;99.90;;;;;;6366410;28;20047;-80
2023/05/17 03:49:26;;;;;;;12.57;5.13;;;7.00;99.90;;;;;;6364247;28;20131;-80
2023/05/17 03:52:28;;;;;;;10.23;4.95;;;7.10;99.90;;;;;;6363877;28;20048;-81
2023/05/17 03:55:29;;;;;;;3.65;2.50;;;7.10;99.90;;;;;;6362882;28;20437;-81
2023/05/17 03:58:31;;;;;;;4.50;2.22;;;7.20;99.90;;;;;;6360188;28;20421;-80
2023/05/17 04:01:34;;;;;;;6.72;2.95;;;7.30;99.90;;;;;;6360267;28;20050;-81
2023/05/17 04:04:36;;;;;;;6.03;2.45;;;7.40;99.90;;;;;;6361223;28;20055;-80
2023/05/17 04:07:37;;;;;;;5.32;2.63;;;7.40;99.90;;;;;;6360303;28;20114;-81
2023/05/17 04:10:41;;;;;;;3.63;2.50;;;7.50;99.90;;;;;;6360723;28;20048;-80
2023/05/17 04:13:43;;;;;;;5.93;2.78;;;7.60;99.90;;;;;;6360234;28;20054;-80
2023/05/17 04:16:46;;;;;;;8.93;2.95;;;7.70;99.90;;;;;;6358588;28;20054;-80
2023/05/17 04:19:47;;;;;;;6.00;2.92;;;7.70;99.90;;;;;;6358492;28;20551;-80
2023/05/17 04:22:49;;;;;;;8.38;3.88;;;7.80;99.90;;;;;;6358713;28;20040;-80
2023/05/17 04:25:51;;;;;;;6.20;2.75;;;7.90;99.90;;;;;;6360248;28;20520;-80
2023/05/17 04:28:53;;;;;;;7.28;3.05;;;8.00;99.90;;;;;;6359195;28;20054;-80
2023/05/17 04:31:56;;;;;;;4.47;3.53;;;8.10;99.90;;;;;;6362816;28;20044;-80
2023/05/17 04:34:58;;;;;;;4.18;3.38;;;8.20;99.90;;;;;;6361169;28;20044;-80
2023/05/17 04:37:59;;;;;;;6.15;2.83;;;8.30;99.90;;;;;;6338421;28;20048;-81
2023/05/17 04:41:03;;;;;;;5.72;3.10;;;8.40;99.90;;;;;;6337953;28;20043;-80
2023/05/17 04:44:06;;;;;;;4.43;3.15;;;8.50;99.90;;;;;;6339682;28;20441;-81
2023/05/17 04:47:09;;;;;;;3.15;2.60;;;8.70;99.90;;;;;;6338855;28;20044;-81
2023/05/17 04:50:11;;;;;;;6.65;3.65;;;8.80;99.90;;;;;;6343371;28;20052;-81
2023/05/17 04:53:14;;;;;;;7.10;2.75;;;9.00;99.90;;;;;;6347255;28;20074;-81
2023/05/17 04:56:16;;;;;;;7.35;2.95;;;9.30;99.90;;;;;;6332064;22;20071;-83
2023/05/17 04:59:17;;;;;;;8.90;3.28;;;9.40;99.90;;;;;;6301117;28;20384;-83
2023/05/17 05:02:20;;;;;;;5.65;3.30;;;9.60;99.90;;;;;;6301618;28;20059;-83
2023/05/17 05:05:23;;;;;;;4.13;3.30;;;9.70;99.90;;;;;;6301706;28;20052;-81
2023/05/17 05:08:25;;;;;;;3.78;2.92;;;9.90;99.90;;;;;;6296393;28;20097;-81
2023/05/17 05:11:27;;;;;;;5.70;2.95;;;10.00;99.90;;;;;;6276374;28;20499;-80
2023/05/17 05:14:29;;;;;;;11.48;3.83;;;10.20;99.90;;;;;;6276455;28;20064;-80
2023/05/17 05:17:33;;;;;;;5.07;2.47;;;10.40;99.90;;;;;;6276360;28;20055;-80
2023/05/17 05:20:34;;;;;;;8.10;3.55;;;10.50;99.90;;;;;;6294320;28;20044;-80
2023/05/17 05:23:36;;;;;;;5.15;2.60;;;10.70;99.90;;;;;;6326267;28;20055;-80
2023/05/17 05:26:38;;;;;;;6.05;3.47;;;11.10;99.90;;;;;;6325971;28;20044;-80
2023/05/17 05:29:41;;;;;;;10.25;3.35;;;11.30;99.90;;;;;;6326689;28;20524;-80
2023/05/17 05:32:44;;;;;;;8.38;3.55;;;11.50;99.90;;;;;;6327443;28;20656;-81
2023/05/17 05:35:46;;;;;;;8.45;4.07;;;11.80;99.90;;;;;;6326466;28;20108;-81
2023/05/17 05:38:48;;;;;;;8.98;3.60;;;12.00;99.90;;;;;;6326888;28;20048;-81
2023/05/17 05:41:51;;;;;;;6.38;3.40;;;12.10;99.90;;;;;;6327023;28;20044;-81
2023/05/17 05:44:53;;;;;;;7.15;5.05;;;12.30;99.90;;;;;;6325943;28;20097;-81
2023/05/17 05:47:56;;;;;;;4.38;3.53;;;12.60;99.90;;;;;;6325942;28;20052;-82
2023/05/17 05:50:57;;;;;;;8.77;3.85;;;12.90;99.90;;;;;;6326013;28;20051;-82
2023/05/17 05:53:59;;;;;;;11.68;4.28;;;13.40;99.90;;;;;;6326679;28;20059;-81
2023/05/17 05:57:01;;;;;;;8.20;4.25;;;13.50;99.90;;;;;;6327504;28;20105;-81
2023/05/17 06:00:03;;;;;;;8.80;3.72;;;13.60;99.90;;;;;;6326308;28;20044;-80
2023/05/17 06:03:06;;;;;;;7.50;3.75;;;13.50;99.90;;;;;;6326587;28;20055;-82
2023/05/17 06:06:09;;;;;;;6.63;4.70;;;13.40;99.90;;;;;;6326314;28;20055;-82
2023/05/17 06:09:11;;;;;;;12.40;4.90;;;13.30;99.90;;;;;;6326536;28;20084;-82
2023/05/17 06:12:12;;;;;;;12.00;5.13;;;13.20;99.90;;;;;;6326393;28;20719;-82
2023/05/17 06:15:14;;;;;;;11.63;5.05;;;13.00;99.60;;;;;;6326826;28;20028;-82
2023/05/17 06:18:17;;;;;;;12.30;3.38;;;12.90;99.50;;;;;;6326272;28;20050;-82
2023/05/17 06:21:19;;;;;;;4.82;4.00;;;12.90;99.70;;;;;;6327287;28;20044;-83
2023/05/17 06:24:20;;;;;;;9.00;4.43;;;12.90;99.40;;;;;;6326187;28;20048;-82
2023/05/17 06:27:22;;;;;;;12.32;3.92;;;13.00;99.60;;;;;;6326154;28;20048;-82
2023/05/17 06:30:26;;;;;;;8.93;3.80;;;13.40;99.70;;;;;;6325707;28;20471;-82
2023/05/17 06:33:29;;;;;;;7.63;4.50;;;14.00;99.30;;;;;;6322756;28;20096;-82
2023/05/17 06:36:31;;;;;;;7.10;3.97;;;14.50;98.60;;;;;;6301563;28;20067;-82
2023/05/17 06:39:32;;;;;;;8.68;4.88;;;15.10;98.00;;;;;;6301022;28;20049;-82
2023/05/17 06:42:34;;;;;;;10.27;3.63;;;15.80;97.50;;;;;;6302300;28;20053;-83
2023/05/17 06:45:36;;;;;;;10.38;3.88;;;17.30;96.80;;;;;;6303631;28;20049;-83
2023/05/17 06:48:39;;;;;;;5.63;3.63;;;18.30;94.40;;;;;;6303587;28;20045;-82
2023/05/17 06:51:41;;;;;;;7.55;4.53;;;18.80;92.50;;;;;;6304006;28;20048;-82
2023/05/17 06:54:42;;;;;;;8.52;3.60;;;19.40;91.30;;;;;;6302809;28;20051;-82
2023/05/17 06:57:44;;;;;;;5.55;3.58;;;20.30;89.20;;;;;;6302426;28;20045;-82
2023/05/17 07:00:46;;;;;;;7.18;3.45;;;20.70;85.50;;;;;;6300376;28;20051;-82
2023/05/17 07:03:49;;;;;;;7.07;2.83;;;21.10;83.00;;;;;;6277147;28;20079;-82
2023/05/17 07:06:50;;;;;;;10.15;3.97;;;21.20;79.40;;;;;;6274992;28;20048;-82
2023/05/17 07:09:52;;;;;;;5.85;3.08;;;21.10;77.80;;;;;;6275919;28;20053;-82
2023/05/17 07:12:54;;;;;;;3.65;2.92;;;21.30;76.80;;;;;;6300491;28;20045;-82
2023/05/17 07:15:56;;;;;;;6.22;3.25;;;21.60;75.30;;;;;;6282777;28;20135;-82
2023/05/17 07:18:58;;;;;;;7.15;3.45;;;22.00;72.10;;;;;;6307282;28;20044;-82
2023/05/17 07:22:00;;;;;;;7.65;4.57;;;22.10;69.80;;;;;;6307158;28;20047;-82
2023/05/17 07:25:02;;;;;;;8.27;2.78;;;21.60;69.20;;;;;;6343066;28;20044;-80
2023/05/17 07:28:04;;;;;;;7.00;3.05;;;21.30;68.70;;;;;;6323440;28;20040;-81
2023/05/17 07:31:06;;;;;;;8.07;3.35;;;21.10;68.50;;;;;;6337825;28;20050;-80
2023/05/17 07:34:09;;;;;;;6.22;3.50;;;20.60;68.40;;;;;;6313415;28;20059;-81
2023/05/17 07:37:10;;;;;;;7.15;3.25;;;20.70;68.90;;;;;;6321193;28;20181;-81
2023/05/17 07:40:13;;;;;;;9.93;3.78;;;20.70;67.30;;;;;;6319839;28;20052;-81
2023/05/17 07:43:15;;;;;;;6.35;2.78;;;20.00;67.40;;;;;;6318812;27;20126;-80
2023/05/17 07:46:17;;;;;;;7.30;3.35;;;19.60;67.60;;;;;;6322696;28;20059;-80
2023/05/17 07:49:20;;;;;;;11.80;3.47;;;18.90;67.50;;;;;;6320357;28;20044;-80
2023/05/17 07:52:22;;;;;;;8.48;5.13;;;18.30;68.30;;;;;;6322052;28;20051;-80
2023/05/17 07:55:24;;;;;;;6.00;3.15;;;18.00;68.90;;;;;;6322442;28;20749;-81
2023/05/17 07:58:25;;;;;;;6.88;3.55;;;18.00;70.10;;;;;;6322174;28;20052;-81
2023/05/17 08:01:27;;;;;;;6.18;3.55;;;18.70;69.60;;;;;;6324116;28;20043;-80
2023/05/17 08:04:30;;;;;;;5.03;3.22;;;19.50;68.10;;;;;;6322668;28;20051;-80
2023/05/17 08:07:32;;;;;;;7.32;4.07;;;19.40;66.20;;;;;;6317871;28;20173;-81
2023/05/17 08:10:35;;;;;;;9.18;4.25;;;18.70;66.10;;;;;;6305110;28;20059;-79
2023/05/17 08:13:36;;;;;;;5.43;3.63;;;18.20;66.80;;;;;;6302616;28;20044;-80
2023/05/17 08:16:38;;;;;;;8.18;3.72;;;17.70;67.80;;;;;;6303465;28;20052;-79
2023/05/17 08:19:41;;;;;;;8.60;3.80;;;17.60;68.10;;;;;;6299479;28;20055;-79
2023/05/17 08:22:43;;;;;;;19.52;4.93;;;17.60;68.60;;;;;;6305271;28;20051;-79
2023/05/17 08:25:45;;;;;;;7.18;4.18;;;17.50;68.90;;;;;;6303679;28;20064;-80
2023/05/17 08:28:46;;;;;;;7.57;3.67;;;17.90;69.10;;;;;;6300287;28;20036;-79
2023/05/17 08:31:48;;;;;;;8.88;3.60;;;17.90;68.40;;;;;;6302192;28;20037;-79
2023/05/17 08:34:51;;;;;;;5.57;4.18;;;17.80;69.10;;;;;;6298147;28;20044;-80
2023/05/17 08:37:53;;;;;;;9.95;3.92;;;17.70;69.00;;;;;;6301886;28;20409;-80
2023/05/17 08:40:55;;;;;;;6.88;3.30;;;17.50;69.10;;;;;;6316929;28;20418;-80
2023/05/17 08:43:59;;;;;;;8.88;3.15;;;17.70;69.80;;;;;;6322102;28;20035;-80
2023/05/17 08:47:02;;;;;;;7.68;4.47;;;18.20;70.00;;;;;;6316985;28;20051;-81
2023/05/17 08:50:06;;;;;;;7.10;2.75;;;19.10;68.60;;;;;;6318985;28;20059;-81
2023/05/17 08:53:10;;;;;;;7.72;3.72;;;19.50;67.30;;;;;;6323851;28;20044;-81
2023/05/17 08:56:14;;;;;;;6.35;3.72;;;19.30;66.00;;;;;;6325581;28;20406;-81
2023/05/17 08:59:15;;;;;;;5.78;3.90;;;18.60;65.50;;;;;;6345999;28;20032;-81
2023/05/17 09:02:18;;;;;;;8.80;3.97;;;17.90;66.40;;;;;;6349863;28;20048;-80
2023/05/17 09:05:21;;;;;;;4.70;4.00;;;17.50;67.30;;;;;;6303768;28;20452;-82
2023/05/17 09:08:24;;;;;;;7.72;4.50;;;17.30;68.10;;;;;;6299969;28;20402;-81
2023/05/17 09:11:27;;;;;;;12.77;4.68;;;17.10;68.40;;;;;;6299370;28;20067;-80
2023/05/17 09:14:33;;;;;;;9.35;5.40;;;16.90;68.80;;;;;;6299977;28;20576;-81
2023/05/17 09:17:35;;;;;;;8.95;4.20;;;16.80;69.10;;;;;;6302467;28;20060;-81
2023/05/17 09:20:39;;;;;;;6.28;3.58;;;16.80;69.30;;;;;;6311983;28;20049;-81
2023/05/17 09:23:41;;;;;;;11.95;4.53;;;16.80;69.60;;;;;;6360896;28;20040;-82
2023/05/17 09:26:44;;;;;;;7.55;5.30;;;17.00;69.10;;;;;;6355701;28;20096;-81
2023/05/17 09:29:46;;;;;;;8.07;3.83;;;17.00;69.00;;;;;;6355377;28;20197;-82
2023/05/17 09:32:49;;;;;;;6.28;3.92;;;17.00;69.90;;;;;;6355364;28;20039;-82
2023/05/17 09:35:52;;;;;;;7.57;3.60;;;17.30;69.60;;;;;;6355115;28;20066;-82
2023/05/17 09:38:55;;;;;;;4.18;3.47;;;17.50;69.00;;;;;;6354137;27;20048;-82
2023/05/17 09:41:57;;;;;;;6.00;4.18;;;17.40;69.00;;;;;;6354446;28;20092;-81
2023/05/17 09:45:00;;;;;;;6.32;4.13;;;17.20;68.70;;;;;;6353822;28;20074;-82
2023/05/17 09:48:13;;;;;;;5.95;4.10;;;17.10;69.00;;;;;;6354099;27;20062;-81
2023/05/17 09:51:16;;;;;;;6.55;3.55;;;17.20;69.60;;;;;;6354961;28;20054;-82
2023/05/17 09:54:18;;;;;;;10.40;3.25;;;17.60;69.10;;;;;;6353158;28;20051;-82
2023/05/17 09:57:20;;;;;;;9.98;4.65;;;17.70;69.10;;;;;;6355910;28;20048;-81
2023/05/17 10:00:22;;;;;;;4.75;3.97;;;17.70;67.90;;;;;;6353819;28;20047;-82
2023/05/17 10:03:29;;;;;;;4.65;3.40;;;17.30;67.40;;;;;;6356382;27;20048;-81
2023/05/17 10:06:34;;;;;;;8.38;4.65;;;16.90;67.90;;;;;;6354165;28;20054;-82
2023/05/17 10:09:36;;;;;;;7.30;3.67;;;16.60;68.70;;;;;;6353535;28;20045;-82
2023/05/17 10:12:40;;;;;;;9.98;4.03;;;16.40;69.40;;;;;;6353898;28;20043;-82
2023/05/17 10:15:43;;;;;;;7.30;3.83;;;16.40;69.70;;;;;;6353577;28;20421;-81
2023/05/17 10:18:45;;;;;;;6.53;3.03;;;16.40;69.80;;;;;;6353045;28;20062;-81
2023/05/17 10:21:50;;;;;;;7.63;4.13;;;16.40;70.10;;;;;;6353352;28;20078;-82
2023/05/17 10:24:52;;;;;;;6.25;3.47;;;16.40;70.20;;;;;;6353758;28;20054;-81
2023/05/17 10:27:54;;;;;;;6.70;3.83;;;16.40;70.60;;;;;;6355361;28;20044;-82
2023/05/17 10:30:57;;;;;;;5.32;3.33;;;16.40;70.70;;;;;;6354180;28;20432;-82
2023/05/17 10:34:00;;;;;;;8.05;3.42;;;16.40;70.70;;;;;;6355574;28;20070;-82
2023/05/17 10:37:04;;;;;;;7.38;2.95;;;16.30;70.70;;;;;;6356584;28;20047;-84
2023/05/17 10:40:11;;;;;;;12.30;3.33;;;16.50;70.80;;;;;;6354574;28;20058;-83
2023/05/17 10:43:14;;;;;;;5.78;2.60;;;16.60;70.50;;;;;;6357404;28;20048;-82
2023/05/17 10:46:20;;;;;;;7.82;3.28;;;16.70;70.70;;;;;;6355180;28;20039;-81
2023/05/17 10:49:25;;;;;;;4.63;3.67;;;16.70;70.40;;;;;;6354333;28;20322;-82
2023/05/17 10:52:28;;;;;;;10.13;3.53;;;16.70;70.60;;;;;;6352133;28;20101;-81
2023/05/17 10:55:39;;;;;;;6.22;3.40;;;16.60;70.70;;;;;;6350461;22;20056;-83
2023/05/17 10:58:40;;;;;;;9.55;3.80;;;16.70;70.50;;;;;;6286512;28;20053;-83
2023/05/17 11:01:54;;;;;;;9.57;3.67;;;16.70;70.80;;;;;;6305793;28;20056;-85
2023/05/17 11:04:56;;;;;;;10.88;3.70;;;16.80;70.60;;;;;;6304442;28;20444;-84
2023/05/17 11:08:15;;;;;;;8.70;3.22;;;16.70;70.50;;;;;;6253712;28;20053;-84
2023/05/17 11:11:18;;;;;;;6.38;3.15;;;16.70;70.60;;;;;;6254202;28;20087;-84
2023/05/17 11:14:20;;;;;;;5.50;2.88;;;16.60;70.90;;;;;;6252273;28;20423;-85
2023/05/17 11:17:24;;;;;;;6.32;3.28;;;16.60;70.80;;;;;;6254182;28;20053;-81
2023/05/17 11:20:35;;;;;;;7.25;3.75;;;16.50;70.90;;;;;;6252814;28;20049;-85
2023/05/17 11:23:39;;;;;;;6.93;3.90;;;16.50;70.70;;;;;;6254041;28;20049;-85
2023/05/17 11:26:44;;;;;;;8.70;3.95;;;16.50;70.80;;;;;;6253717;28;20049;-84
2023/05/17 11:29:47;;;;;;;5.70;3.60;;;16.50;70.70;;;;;;6253630;28;20057;-83
2023/05/17 11:32:53;;;;;;;4.57;3.40;;;16.50;70.50;;;;;;6253201;28;20507;-84
2023/05/17 11:35:55;;;;;;;4.60;3.03;;;16.70;70.20;;;;;;6252505;28;20045;-85
2023/05/17 11:39:16;;;;;;;7.68;3.22;;;16.80;69.60;;;;;;6251065;28;20062;-85
2023/05/17 11:42:25;;;;;;;5.47;3.33;;;16.90;68.70;;;;;;6255821;28;20049;-82
2023/05/17 11:45:49;;;;;;;5.60;3.22;;;16.80;67.90;;;;;;6276818;28;20041;-85
2023/05/17 11:48:56;;;;;;;3.60;2.50;;;16.60;67.80;;;;;;6265351;28;20044;-86
2023/05/17 11:51:58;;;;;;;4.25;2.67;;;16.40;68.20;;;;;;6279451;28;20048;-84
2023/05/17 11:55:01;;;;;;;7.72;3.03;;;16.40;68.60;;;;;;6281302;28;20052;-85
2023/05/17 11:58:03;;;;;;;8.18;2.40;;;16.60;68.50;;;;;;6279235;28;20041;-85
2023/05/17 12:04:48;;;;;;;6.65;2.78;;;16.80;67.80;;;;;;6270264;28;20048;-80
2023/05/17 12:07:59;;;;;;;8.57;4.60;;;16.90;67.80;;;;;;6277940;28;20041;-83
2023/05/17 12:11:03;;;;;;;8.35;3.75;;;17.10;68.10;;;;;;6277793;28;20048;-85
2023/05/17 12:14:06;;;;;;;7.50;4.47;;;17.40;67.60;;;;;;6274407;28;20088;-81
2023/05/17 12:17:09;;;;;;;5.65;2.50;;;17.60;66.90;;;;;;6478143;22;20050;-82
2023/05/17 12:20:11;;;;;;;6.43;3.47;;;18.00;66.80;;;;;;6252784;28;20673;-84
2023/05/17 12:23:13;;;;;;;5.82;2.92;;;18.10;65.00;;;;;;6244694;28;20045;-86
2023/05/17 12:30:22;;;;;;;4.55;3.10;;;18.10;64.60;;;;;;6290572;28;20395;-85
2023/05/17 12:33:25;;;;;;;7.53;3.67;;;18.30;63.80;;;;;;6289979;28;20055;-86
2023/05/17 12:36:30;;;;;;;7.75;3.53;;;18.40;63.80;;;;;;6285239;28;20056;-82
2023/05/17 12:39:32;;;;;;;11.23;4.43;;;18.70;63.20;;;;;;6298817;28;20052;-83
2023/05/17 12:49:54;;;;;;;10.98;5.38;;;19.30;62.00;;;;;;6292084;28;20100;-85
2023/05/17 12:52:56;;;;;;;5.43;3.13;;;19.30;61.60;;;;;;6300641;28;20041;-85
2023/05/17 12:55:58;;;;;;;5.50;3.13;;;19.40;61.30;;;;;;6300110;28;20064;-86
2023/05/17 12:59:12;;;;;;;12.57;7.10;;;19.30;60.90;;;;;;6305066;28;20048;-86
2023/05/17 13:02:14;;;;;;;5.97;4.22;;;19.40;60.70;;;;;;6305046;28;20064;-84
2023/05/17 13:05:20;;;;;;;9.50;5.40;;;19.40;60.60;;;;;;6276400;28;20041;-85
2023/05/17 13:08:23;;;;;;;7.50;4.25;;;19.60;61.00;;;;;;6276187;28;20041;-84
2023/05/17 13:11:25;;;;;;;7.18;3.40;;;19.70;59.60;;;;;;6274000;28;20053;-83
2023/05/17 13:14:36;;;;;;;6.15;3.85;;;19.80;58.60;;;;;;6274713;28;20096;-81
2023/05/17 13:17:43;;;;;;;7.70;3.10;;;19.90;58.00;;;;;;6285898;28;20037;-84
2023/05/17 13:20:45;;;;;;;10.32;3.53;;;20.10;57.20;;;;;;6278361;28;20044;-85
2023/05/17 13:23:48;;;;;;;8.45;3.42;;;20.40;56.70;;;;;;6277844;28;20131;-84
2023/05/17 13:26:49;;;;;;;8.00;4.07;;;20.60;56.60;;;;;;6273786;28;20041;-83
2023/05/17 13:29:52;;;;;;;7.10;3.45;;;20.70;56.00;;;;;;6263926;28;20479;-85
2023/05/17 13:32:54;;;;;;;5.72;3.65;;;20.80;55.10;;;;;;6256837;28;20045;-84
2023/05/17 13:36:26;;;;;;;6.88;3.67;;;20.80;55.40;;;;;;6204256;28;20044;-85
2023/05/17 13:39:32;;;;;;;8.48;3.85;;;20.60;53.70;;;;;;6255633;28;20410;-85
2023/05/17 13:42:38;;;;;;;6.00;2.80;;;20.10;54.00;;;;;;6252759;28;20065;-85
2023/05/17 13:49:42;;;;;;;4.03;3.03;;;19.90;54.90;;;;;;6149781;28;20082;-83
2023/05/17 13:52:44;;;;;;;6.85;3.33;;;19.80;55.80;;;;;;6161521;28;20130;-84
2023/05/17 13:55:46;;;;;;;7.43;3.13;;;19.70;54.60;;;;;;6307691;23;20056;-82
2023/05/17 13:58:51;;;;;;;5.18;2.95;;;19.50;54.70;;;;;;6235832;28;20064;-82
2023/05/17 14:01:53;;;;;;;4.47;2.58;;;19.50;55.70;;;;;;6239805;28;20064;-83
2023/05/17 14:04:56;;;;;;;3.35;2.75;;;19.70;54.10;;;;;;6237566;28;20173;-85
2023/05/17 14:07:59;;;;;;;6.82;3.78;;;19.40;54.10;;;;;;6225279;28;20416;-83
2023/05/17 14:11:00;;;;;;;5.57;4.10;;;19.30;53.80;;;;;;6228302;28;20057;-83
2023/05/17 14:14:05;;;;;;;4.85;2.92;;;19.20;54.30;;;;;;6244946;28;20087;-82
2023/05/17 14:17:10;;;;;;;7.53;3.50;;;19.20;54.40;;;;;;6262167;28;20052;-84
2023/05/17 14:24:16;;;;;;;9.93;3.08;;;19.30;54.20;;;;;;6174229;28;20056;-82
2023/05/17 14:27:23;;;;;;;6.68;3.33;;;18.70;54.50;;;;;;6276910;28;20107;-83
2023/05/17 14:34:06;;;;;;;4.30;3.60;;;18.60;55.80;;;;;;6266809;28;20048;-80
2023/05/17 14:37:09;;;;;;;6.10;3.17;;;19.20;55.30;;;;;;6266762;28;20056;-83
2023/05/17 14:40:12;;;;;;;4.72;3.47;;;19.50;54.90;;;;;;6279911;28;20057;-83
2023/05/17 14:43:14;;;;;;;4.72;2.97;;;19.60;54.60;;;;;;6278082;28;20048;-84
2023/05/17 14:46:16;;;;;;;5.20;3.58;;;19.60;54.50;;;;;;6275739;28;20056;-83
2023/05/17 14:49:17;;;;;;;8.23;2.85;;;19.70;54.50;;;;;;6279911;28;20049;-82
2023/05/17 14:52:20;;;;;;;7.50;3.53;;;19.80;54.60;;;;;;6283106;28;20045;-82
2023/05/17 14:55:25;;;;;;;5.50;3.10;;;19.80;54.40;;;;;;6275225;28;20038;-83
2023/05/17 14:58:27;;;;;;;6.10;3.22;;;19.70;54.30;;;;;;6277931;28;20057;-81
2023/05/17 15:01:30;;;;;;;4.05;3.38;;;19.40;54.00;;;;;;6280066;28;20513;-83
2023/05/17 15:04:32;;;;;;;5.55;3.17;;;18.90;53.90;;;;;;6277967;28;20048;-82
2023/05/17 15:07:35;;;;;;;7.68;3.28;;;18.60;54.60;;;;;;6256316;28;20187;-82
2023/05/17 15:10:38;;;;;;;12.20;3.05;;;18.60;55.00;;;;;;6276233;28;20558;-83
2023/05/17 15:13:39;;;;;;;4.75;2.72;;;18.60;55.00;;;;;;6272768;28;20040;-84
2023/05/17 15:16:41;;;;;;;5.20;3.20;;;18.50;55.10;;;;;;6275795;28;20045;-83
2023/05/17 15:19:43;;;;;;;5.90;4.07;;;18.70;55.50;;;;;;6289107;28;20046;-82
2023/05/17 15:22:46;;;;;;;7.07;4.18;;;19.10;55.30;;;;;;6289254;28;20044;-82
2023/05/17 15:25:48;;;;;;;5.20;2.45;;;19.60;55.30;;;;;;6274209;28;20059;-83
2023/05/17 15:28:50;;;;;;;7.13;3.83;;;20.10;54.60;;;;;;6277671;28;20045;-83
2023/05/17 15:31:52;;;;;;;5.93;3.53;;;20.60;54.10;;;;;;6277183;28;20064;-83
2023/05/17 15:34:53;;;;;;;6.72;2.67;;;20.50;53.20;;;;;;6273432;28;20041;-83
2023/05/17 15:37:58;;;;;;;3.72;2.85;;;20.40;53.20;;;;;;6282551;28;20037;-85
2023/05/17 15:41:04;;;;;;;7.22;2.40;;;20.50;52.70;;;;;;6272208;28;20057;-81
2023/05/17 15:44:07;;;;;;;6.28;3.55;;;20.50;52.60;;;;;;6273121;28;20061;-82
2023/05/17 15:47:09;;;;;;;8.63;2.80;;;20.60;52.80;;;;;;6271823;28;20059;-82
2023/05/17 15:50:11;;;;;;;7.57;2.58;;;20.60;52.60;;;;;;6273749;28;20048;-83
2023/05/17 15:53:14;;;;;;;6.10;2.03;;;20.40;52.60;;;;;;6272561;28;20063;-83
2023/05/17 15:56:19;;;;;;;5.65;3.15;;;20.30;52.30;;;;;;6272299;28;20040;-82
2023/05/17 15:59:20;;;;;;;3.80;2.92;;;19.80;52.50;;;;;;6273852;28;20065;-83
2023/05/17 16:02:23;;;;;;;4.07;2.38;;;19.40;53.40;;;;;;6276022;28;20055;-84
2023/05/17 16:05:25;;;;;;;9.75;3.83;;;19.40;54.60;;;;;;6272498;28;20102;-83
2023/05/17 16:08:28;;;;;;;9.43;3.50;;;19.50;53.70;;;;;;6272489;28;20053;-83
2023/05/17 16:11:30;;;;;;;4.93;2.80;;;19.40;53.40;;;;;;6279968;28;20049;-81
2023/05/17 16:14:31;;;;;;;3.60;2.75;;;19.50;53.50;;;;;;6278909;28;20041;-84
2023/05/17 16:17:33;;;;;;;3.97;2.20;;;19.70;53.30;;;;;;6273986;28;20048;-82
2023/05/17 16:20:35;;;;;;;9.07;3.28;;;20.00;53.00;;;;;;6276438;28;20048;-81